Time;durP1;ratioP1;P1;durP2;ratioP2;P2;SDS_P1;SDS_P2;PMS_P1;PMS_P2;Temp;Humidity;BMP_temperature;BMP_pressure;BME280_temperature;BME280_humidity;BME280_pressure;Samples;Min_cycle;Max_cycle;Signal;HPM_P1;HPM_P2
2021/11/18 00:04:48;;;;;;;16.20;12.80;;;;;;;7.27;89.43;101252.31;10343577;28;20056;-69
2021/11/18 00:09:50;;;;;;;13.90;12.20;;;;;;;7.26;89.46;101245.28;10340822;28;20140;-68
2021/11/18 00:14:51;;;;;;;15.80;11.50;;;;;;;7.33;89.36;101236.09;10343889;28;20133;-67
2021/11/18 00:19:53;;;;;;;14.73;11.55;;;;;;;7.23;89.70;101256.03;10334691;28;20595;-67
2021/11/18 00:24:54;;;;;;;14.70;11.40;;;;;;;7.15;89.99;101274.97;10340233;28;20067;-66
2021/11/18 00:29:55;;;;;;;12.88;10.20;;;;;;;7.19;89.89;101267.72;10338177;28;20072;-65
2021/11/18 00:34:57;;;;;;;14.93;11.98;;;;;;;7.35;89.32;101276.59;10338954;28;20133;-66
2021/11/18 00:39:58;;;;;;;14.98;11.82;;;;;;;7.40;89.17;101273.72;10338468;28;20085;-67
2021/11/18 00:45:00;;;;;;;15.70;12.80;;;;;;;7.42;88.89;101309.81;10332352;28;20419;-67
2021/11/18 00:50:04;;;;;;;14.20;11.25;;;;;;;7.44;89.10;101317.66;10338051;28;20153;-69
2021/11/18 00:55:07;;;;;;;14.18;12.07;;;;;;;7.41;89.19;101301.94;10295286;28;20082;-67
2021/11/18 01:00:13;;;;;;;16.85;11.30;;;;;;;7.46;88.96;101321.13;10299033;28;20134;-66
2021/11/18 01:05:15;;;;;;;16.33;12.10;;;;;;;7.54;88.84;101296.88;10296460;28;20074;-66
2021/11/18 01:10:16;;;;;;;14.82;11.65;;;;;;;7.42;88.80;101285.97;10294059;28;20117;-66
2021/11/18 01:15:22;;;;;;;14.75;12.20;;;;;;;7.37;89.26;101305.66;10298418;28;20047;-68
2021/11/18 01:20:24;;;;;;;14.50;11.88;;;;;;;7.36;89.39;101310.09;10301106;28;20047;-67
2021/11/18 01:25:27;;;;;;;15.98;11.85;;;;;;;7.38;89.06;101312.69;10342260;28;20149;-67
2021/11/18 01:30:32;;;;;;;13.23;11.75;;;;;;;7.17;89.96;101309.31;10337441;28;20141;-66
2021/11/18 01:35:35;;;;;;;15.70;11.48;;;;;;;7.18;90.21;101311.88;10338743;28;20081;-67
2021/11/18 01:40:42;;;;;;;14.48;12.48;;;;;;;7.16;90.83;101321.72;10294163;28;20509;-67
2021/11/18 01:45:44;;;;;;;15.25;12.10;;;;;;;7.23;90.40;101314.31;10292562;28;20046;-67
2021/11/18 01:50:49;;;;;;;14.20;11.98;;;;;;;7.18;90.68;101329.56;10300639;28;21207;-66
2021/11/18 01:55:51;;;;;;;15.82;12.35;;;;;;;7.19;90.43;101328.63;10294373;28;20057;-66
2021/11/18 02:00:56;;;;;;;15.90;12.07;;;;;;;7.14;90.26;101336.78;10298738;28;20088;-66
2021/11/18 02:06:18;;;;;;;15.23;12.52;;;;;;;7.18;90.01;101335.72;10295979;28;20054;-67
2021/11/18 02:11:33;;;;;;;16.67;12.05;;;;;;;7.14;90.47;101330.66;10294635;28;20052;-67
2021/11/18 02:16:36;;;;;;;13.48;11.93;;;;;;;7.15;90.22;101335.88;10300169;28;20052;-67
2021/11/18 02:21:39;;;;;;;15.43;11.88;;;;;;;7.16;89.91;101323.47;10342264;28;20054;-67
2021/11/18 02:26:41;;;;;;;15.57;11.50;;;;;;;7.20;89.72;101351.53;10338108;28;20335;-66
2021/11/18 02:31:51;;;;;;;15.50;11.93;;;;;;;7.11;90.11;101344.03;10346890;28;20423;-67
2021/11/18 02:36:53;;;;;;;15.57;11.27;;;;;;;7.16;90.27;101356.13;10339488;28;20042;-67
2021/11/18 02:41:54;;;;;;;12.60;10.45;;;;;;;7.34;89.47;101362.31;10337788;28;20045;-66
2021/11/18 02:46:56;;;;;;;14.80;11.82;;;;;;;7.48;88.13;101348.38;10341343;28;20514;-66
2021/11/18 02:51:58;;;;;;;12.38;10.80;;;;;;;7.52;87.42;101335.81;10341611;28;20061;-67
2021/11/18 02:57:00;;;;;;;13.13;11.30;;;;;;;7.58;87.15;101356.72;10342211;28;20056;-67
2021/11/18 03:02:06;;;;;;;15.10;12.05;;;;;;;7.60;86.98;101357.50;10347267;28;20136;-67
2021/11/18 03:07:09;;;;;;;14.02;11.35;;;;;;;7.56;87.01;101369.19;10338497;28;20062;-68
2021/11/18 03:12:10;;;;;;;15.88;11.93;;;;;;;7.52;86.86;101351.72;10340463;28;20140;-68
2021/11/18 03:17:12;;;;;;;11.52;10.30;;;;;;;7.53;86.85;101364.03;10340281;28;20176;-67
2021/11/18 03:22:13;;;;;;;15.13;10.90;;;;;;;7.46;86.91;101363.50;10343075;28;20054;-66
2021/11/18 03:27:15;;;;;;;13.68;10.70;;;;;;;7.43;87.12;101369.81;10332344;28;20056;-67
2021/11/18 03:32:16;;;;;;;15.52;10.88;;;;;;;7.42;86.66;101373.38;10345549;28;20219;-67
2021/11/18 03:37:18;;;;;;;14.60;10.25;;;;;;;7.37;87.04;101380.72;10340037;28;20049;-66
2021/11/18 03:42:19;;;;;;;11.63;9.77;;;;;;;7.42;86.61;101373.38;10346363;28;20619;-67
2021/11/18 03:47:20;;;;;;;15.23;12.38;;;;;;;7.37;87.08;101375.41;10337258;28;20124;-67
2021/11/18 03:52:22;;;;;;;16.60;12.05;;;;;;;7.26;88.11;101386.50;10339009;28;20738;-67
2021/11/18 03:57:24;;;;;;;14.60;12.25;;;;;;;7.41;87.50;101392.00;10337568;28;20068;-67
2021/11/18 04:02:25;;;;;;;18.73;12.13;;;;;;;7.30;87.90;101395.19;10334807;28;20144;-68
2021/11/18 04:07:27;;;;;;;20.90;13.23;;;;;;;7.26;88.83;101409.50;10289484;28;20054;-66
2021/11/18 04:12:29;;;;;;;19.30;13.50;;;;;;;7.22;89.29;101421.16;10289682;28;20138;-67
2021/11/18 04:17:30;;;;;;;33.95;15.45;;;;;;;7.20;89.47;101417.72;10292728;28;20650;-67
2021/11/18 04:22:32;;;;;;;18.45;13.55;;;;;;;7.09;90.29;101418.25;10292926;28;20444;-68
2021/11/18 04:27:34;;;;;;;17.33;13.48;;;;;;;7.07;90.76;101415.69;10294904;28;20058;-65
2021/11/18 04:32:35;;;;;;;19.90;13.20;;;;;;;7.02;91.19;101417.66;10313263;28;20046;-67
2021/11/18 04:37:37;;;;;;;17.70;13.45;;;;;;;7.05;91.47;101422.81;10293470;28;22017;-68
2021/11/18 04:42:41;;;;;;;16.77;14.05;;;;;;;6.99;91.57;101415.16;10296413;28;20117;-67
2021/11/18 04:47:42;;;;;;;19.45;13.77;;;;;;;6.99;91.02;101423.09;10295192;28;20673;-67
2021/11/18 04:52:44;;;;;;;18.63;12.77;;;;;;;6.92;91.24;101419.06;10303879;28;20133;-67
2021/11/18 04:57:47;;;;;;;19.17;13.40;;;;;;;7.04;90.77;101420.25;10295781;28;20141;-67
2021/11/18 05:02:49;;;;;;;14.70;11.63;;;;;;;7.01;90.63;101423.03;10301548;28;20860;-67
2021/11/18 05:07:51;;;;;;;16.77;13.02;;;;;;;7.04;90.81;101421.13;10294537;28;20073;-68
2021/11/18 05:12:53;;;;;;;19.15;12.45;;;;;;;7.17;90.33;101437.28;10286612;28;20103;-67
2021/11/18 05:17:55;;;;;;;15.90;11.80;;;;;;;7.18;90.06;101433.69;10293564;28;20527;-68
2021/11/18 05:22:56;;;;;;;14.13;12.30;;;;;;;7.10;89.88;101445.56;10284793;28;20149;-67
2021/11/18 05:28:00;;;;;;;15.20;11.43;;;;;;;7.13;90.37;101448.09;10284841;28;20568;-67
2021/11/18 05:33:06;;;;;;;16.08;12.23;;;;;;;7.22;89.66;101445.00;10291873;28;20038;-66
2021/11/18 05:38:08;;;;;;;18.42;13.20;;;;;;;7.18;89.51;101452.25;10282349;28;20502;-67
2021/11/18 05:43:11;;;;;;;16.52;12.80;;;;;;;7.19;89.56;101445.13;10327842;28;20133;-68
2021/11/18 05:48:15;;;;;;;17.98;13.02;;;;;;;7.12;90.08;101449.03;10336493;28;20049;-66
2021/11/18 05:53:25;;;;;;;17.90;13.02;;;;;;;7.25;89.36;101448.38;10326617;28;20132;-66
2021/11/18 05:58:27;;;;;;;16.65;13.50;;;;;;;7.21;89.20;101443.28;10344033;28;20132;-66
2021/11/18 06:03:34;;;;;;;15.80;12.40;;;;;;;7.12;89.66;101438.44;10347755;28;20472;-65
2021/11/18 06:08:37;;;;;;;15.68;11.65;;;;;;;7.07;90.29;101431.56;10318880;28;20089;-66
2021/11/18 06:13:38;;;;;;;15.48;13.02;;;;;;;6.92;90.48;101453.47;10315508;28;20535;-67
2021/11/18 06:18:41;;;;;;;16.45;13.90;;;;;;;6.78;91.63;101458.53;10341442;28;20076;-66
2021/11/18 06:23:44;;;;;;;16.67;13.38;;;;;;;6.82;91.97;101468.03;10330713;28;20093;-66
2021/11/18 06:28:46;;;;;;;16.33;12.43;;;;;;;6.84;91.46;101488.19;10331711;28;20054;-66
2021/11/18 06:33:49;;;;;;;15.60;12.23;;;;;;;6.93;91.04;101494.88;10335279;28;20057;-68
2021/11/18 06:38:52;;;;;;;14.50;11.57;;;;;;;6.97;90.90;101503.56;10357051;28;20041;-66
2021/11/18 06:43:53;;;;;;;17.10;12.52;;;;;;;7.04;90.11;101508.50;10365457;28;20053;-66
2021/11/18 06:48:54;;;;;;;16.33;12.65;;;;;;;7.02;90.08;101518.28;10362263;28;20053;-66
2021/11/18 06:53:58;;;;;;;15.90;12.15;;;;;;;7.02;89.79;101505.03;10366086;28;20053;-66
2021/11/18 06:59:00;;;;;;;18.95;12.60;;;;;;;6.98;89.62;101500.84;10362818;28;20100;-66
2021/11/18 07:04:06;;;;;;;17.63;12.38;;;;;;;7.07;89.67;101495.13;10364690;28;20778;-66
2021/11/18 07:09:09;;;;;;;15.85;12.05;;;;;;;7.15;89.69;101475.38;10364242;28;20165;-67
2021/11/18 07:14:11;;;;;;;15.77;12.07;;;;;;;7.17;89.41;101492.88;10365082;28;20057;-66
2021/11/18 07:19:12;;;;;;;16.02;13.10;;;;;;;7.22;89.08;101511.19;10362288;28;20068;-66
2021/11/18 07:24:14;;;;;;;16.08;13.43;;;;;;;7.00;89.08;101514.84;10363938;28;20136;-65
2021/11/18 07:29:16;;;;;;;17.73;13.23;;;;;;;7.16;89.78;101530.03;10363828;28;20205;-66
2021/11/18 07:34:18;;;;;;;18.08;13.38;;;;;;;7.28;89.23;101548.03;10315623;28;20156;-67
2021/11/18 07:39:22;;;;;;;18.10;13.60;;;;;;;7.44;88.21;101556.09;10319056;28;21270;-67
2021/11/18 07:44:23;;;;;;;16.67;13.07;;;;;;;7.56;87.24;101576.72;10312928;28;20049;-66
2021/11/18 07:49:32;;;;;;;17.05;13.23;;;;;;;7.54;87.30;101567.16;10304547;28;20053;-66
2021/11/18 07:54:34;;;;;;;20.65;14.80;;;;;;;7.59;86.81;101570.44;10297905;28;20428;-67
2021/11/18 07:59:36;;;;;;;18.33;15.25;;;;;;;7.64;85.49;101568.44;10295381;28;20496;-66
2021/11/18 08:04:38;;;;;;;17.25;13.48;;;;;;;7.63;85.75;101563.19;10296541;28;20057;-66
2021/11/18 08:09:39;;;;;;;20.13;14.45;;;;;;;7.62;85.29;101564.97;10297824;28;20145;-66
2021/11/18 08:14:41;;;;;;;19.55;15.18;;;;;;;7.78;85.46;101559.81;10298577;28;20050;-67
2021/11/18 08:19:42;;;;;;;16.58;13.68;;;;;;;7.83;85.08;101572.84;10358460;28;20049;-66
2021/11/18 08:24:44;;;;;;;21.15;16.15;;;;;;;7.87;84.24;101561.19;10359193;28;20045;-67
2021/11/18 08:29:47;;;;;;;18.73;14.57;;;;;;;7.85;83.91;101568.31;10358148;28;20472;-67
2021/11/18 08:34:48;;;;;;;18.98;14.68;;;;;;;8.04;83.38;101565.66;10359057;28;20084;-68
2021/11/18 08:39:49;;;;;;;25.13;17.02;;;;;;;8.03;82.61;101578.06;10354610;28;20058;-66
2021/11/18 08:44:51;;;;;;;21.38;15.75;;;;;;;8.06;82.62;101585.88;10356812;28;20479;-66
2021/11/18 08:49:52;;;;;;;23.58;17.48;;;;;;;8.19;81.47;101585.25;10357829;28;20062;-66
2021/11/18 08:54:59;;;;;;;24.15;17.13;;;;;;;8.36;81.22;101587.94;10359086;28;20091;-65
2021/11/18 09:00:01;;;;;;;19.48;14.98;;;;;;;8.73;79.79;101580.78;10355541;28;20096;-66
2021/11/18 09:05:02;;;;;;;20.55;14.95;;;;;;;8.99;78.05;101575.91;10340202;28;20561;-66
2021/11/18 09:10:05;;;;;;;19.13;13.60;;;;;;;9.14;77.41;101585.75;10343957;28;20196;-65
2021/11/18 09:15:08;;;;;;;18.10;14.88;;;;;;;9.24;76.41;101585.25;10333723;28;20057;-65
2021/11/18 09:20:13;;;;;;;21.48;16.00;;;;;;;9.59;76.53;101572.66;10340979;28;20315;-66
2021/11/18 09:25:15;;;;;;;;;;;;;;;9.72;74.67;101570.19;10339095;28;20064;-66
2021/11/18 09:30:22;;;;;;;23.17;17.77;;;;;;;9.72;74.57;101575.50;10338962;28;20107;-66
2021/11/18 09:35:30;;;;;;;23.17;18.90;;;;;;;9.73;74.66;101590.53;10359551;28;20054;-63
2021/11/18 09:40:43;;;;;;;20.10;15.52;;;;;;;9.69;74.46;101610.25;10361585;28;20073;-66
2021/11/18 09:45:51;;;;;;;20.55;15.40;;;;;;;9.48;74.95;101631.75;10337725;28;20050;-66
2021/11/18 09:51:17;;;;;;;19.17;14.45;;;;;;;9.86;75.06;101630.59;10349069;28;20050;-66
2021/11/18 09:56:28;;;;;;;18.55;15.50;;;;;;;9.95;73.56;101602.63;10360737;28;20196;-65
2021/11/18 10:01:56;;;;;;;21.50;16.40;;;;;;;9.44;74.30;101608.91;10360418;28;20045;-66
2021/11/18 10:07:09;;;;;;;18.70;15.35;;;;;;;9.37;75.30;101624.34;10361968;28;20049;-65
2021/11/18 10:12:22;;;;;;;21.05;15.45;;;;;;;9.44;75.19;101630.19;10365336;28;20071;-66
2021/11/18 10:17:23;;;;;;;16.75;14.02;;;;;;;10.08;73.20;101638.22;10366265;28;20052;-65
2021/11/18 10:22:26;;;;;;;20.45;15.98;;;;;;;11.64;67.89;101624.53;10359433;28;20050;-66
2021/11/18 10:27:34;;;;;;;17.63;14.32;;;;;;;12.43;64.12;101631.97;10361544;28;20132;-71
2021/11/18 10:33:14;;;;;;;19.48;14.35;;;;;;;11.81;64.97;101627.94;10347408;28;20042;-65
2021/11/18 10:38:21;;;;;;;16.40;14.27;;;;;;;11.49;65.95;101614.84;10363256;28;20445;-65
2021/11/18 10:43:24;;;;;;;17.58;12.88;;;;;;;11.41;66.08;101607.31;10369891;28;20165;-66
2021/11/18 10:48:34;;;;;;;17.73;14.13;;;;;;;12.30;64.08;101621.25;10372777;28;20053;-66
2021/11/18 10:53:55;;;;;;;18.88;13.38;;;;;;;13.98;56.89;101604.28;10354519;28;20064;-66
2021/11/18 10:59:04;;;;;;;14.98;12.25;;;;;;;14.11;57.42;101605.09;10352146;28;20219;-67
2021/11/18 11:04:09;;;;;;;15.10;12.50;;;;;;;15.67;51.37;101593.13;10345603;28;20124;-66
2021/11/18 11:09:28;;;;;;;14.05;11.77;;;;;;;16.90;49.38;101603.59;10349478;28;20045;-67
2021/11/18 11:15:09;;;;;;;15.40;11.63;;;;;;;18.96;43.67;101594.09;10368338;28;20136;-67
2021/11/18 11:20:20;;;;;;;16.35;11.52;;;;;;;15.83;49.31;101576.63;10365293;28;20050;-68
2021/11/18 11:25:55;;;;;;;14.85;12.02;;;;;;;13.81;54.21;101573.41;10365228;28;20195;-68
2021/11/18 11:31:19;;;;;;;17.65;13.35;;;;;;;12.47;57.99;101574.75;10360470;28;20061;-66
2021/11/18 11:36:27;;;;;;;16.42;11.75;;;;;;;11.93;60.36;101559.63;10364735;28;20120;-67
2021/11/18 11:41:40;;;;;;;18.40;11.95;;;;;;;11.54;60.45;101551.38;10355388;28;20134;-66
2021/11/18 11:47:02;;;;;;;14.20;11.05;;;;;;;13.09;56.49;101550.00;10360951;28;20078;-65
2021/11/18 11:52:13;;;;;;;14.98;11.70;;;;;;;13.47;55.52;101529.53;10362784;28;20042;-67
2021/11/18 11:57:25;;;;;;;14.95;11.45;;;;;;;14.46;54.31;101526.56;10359471;28;20139;-66
2021/11/18 12:03:05;;;;;;;18.25;12.18;;;;;;;15.64;48.69;101530.78;10295977;28;20431;-67
2021/11/18 12:08:35;;;;;;;16.98;12.25;;;;;;;14.54;53.17;101541.22;10282540;28;20348;-67
2021/11/18 12:13:43;;;;;;;15.40;11.85;;;;;;;16.88;47.63;101541.00;10354900;28;20045;-67
2021/11/18 12:19:10;;;;;;;12.07;10.43;;;;;;;18.72;42.13;101511.78;10357369;28;20051;-69
2021/11/18 12:24:20;;;;;;;14.43;11.13;;;;;;;17.21;44.13;101495.97;10361088;28;20060;-68
2021/11/18 12:29:33;;;;;;;16.25;10.90;;;;;;;14.86;51.14;101501.19;10359395;28;20461;-67
2021/11/18 12:34:52;;;;;;;13.77;9.98;;;;;;;13.55;54.97;101497.72;10354332;28;20422;-68
2021/11/18 12:40:41;;;;;;;12.13;9.60;;;;;;;12.89;57.52;101524.66;10352257;28;20114;-67
2021/11/18 12:46:18;;;;;;;11.02;8.98;;;;;;;12.84;57.63;101476.03;10308725;28;20053;-66
2021/11/18 12:51:35;;;;;;;16.38;9.90;;;;;;;12.42;59.10;101480.75;10355421;28;20044;-65
2021/11/18 12:56:48;;;;;;;13.45;9.23;;;;;;;12.82;57.52;101467.25;10357407;28;20229;-65
2021/11/18 13:01:56;;;;;;;13.93;7.10;;;;;;;12.82;56.90;101461.91;10290695;28;20562;-66
2021/11/18 13:06:59;;;;;;;12.32;7.78;;;;;;;12.62;56.92;101455.31;10346101;28;20499;-66
2021/11/18 13:12:01;;;;;;;11.95;6.95;;;;;;;12.80;56.16;101453.16;10351155;28;20197;-67
2021/11/18 13:17:11;;;;;;;11.52;6.75;;;;;;;12.36;57.39;101477.50;10350831;28;20089;-68
2021/11/18 13:22:21;;;;;;;11.40;7.20;;;;;;;12.57;57.31;101469.00;10351490;28;20418;-66
2021/11/18 13:27:30;;;;;;;9.77;7.10;;;;;;;12.31;58.66;101463.63;10366763;28;20060;-66
2021/11/18 13:32:53;;;;;;;10.45;7.55;;;;;;;11.86;59.76;101447.09;10351772;28;20482;-66
2021/11/18 13:38:22;;;;;;;10.88;6.80;;;;;;;12.64;57.58;101459.59;10354709;28;20161;-66
2021/11/18 13:43:27;;;;;;;12.18;7.40;;;;;;;13.01;56.53;101450.78;10356144;28;20054;-67
2021/11/18 13:48:38;;;;;;;11.65;6.35;;;;;;;12.38;57.21;101458.72;10314491;28;20085;-66
2021/11/18 13:53:55;;;;;;;11.57;6.60;;;;;;;11.88;58.92;101468.34;10365399;28;20117;-65
2021/11/18 13:59:19;;;;;;;8.68;6.35;;;;;;;11.57;60.27;101476.53;10354643;28;20467;-68
2021/11/18 14:04:37;;;;;;;8.90;6.17;;;;;;;11.31;61.36;101451.56;10292507;28;20496;-66
2021/11/18 14:10:06;;;;;;;12.05;6.47;;;;;;;11.13;61.82;101459.78;10326018;28;20053;-66
2021/11/18 14:15:19;;;;;;;10.35;5.75;;;;;;;11.05;62.96;101463.88;10319927;28;20058;-66
2021/11/18 14:20:39;;;;;;;8.15;5.82;;;;;;;10.96;63.03;101468.84;10343941;28;20157;-66
2021/11/18 14:25:42;;;;;;;10.65;5.28;;;;;;;11.18;62.37;101461.31;10347575;28;20234;-65
2021/11/18 14:30:51;;;;;;;8.70;5.40;;;;;;;11.12;62.86;101467.88;10344320;28;20058;-66
2021/11/18 14:36:00;;;;;;;11.73;5.72;;;;;;;10.84;63.70;101463.41;10346444;28;20054;-66
2021/11/18 14:41:07;;;;;;;11.45;6.10;;;;;;;10.53;64.88;101454.69;10339671;28;20133;-65
2021/11/18 14:46:27;;;;;;;10.30;5.75;;;;;;;10.51;65.83;101472.53;10353497;28;20487;-65
2021/11/18 14:51:36;;;;;;;14.20;7.32;;;;;;;10.45;65.77;101468.47;10337080;28;20073;-66
2021/11/18 14:56:42;;;;;;;12.98;6.05;;;;;;;10.22;66.33;101467.13;10347350;28;20049;-65
2021/11/18 15:01:48;;;;;;;14.07;5.00;;;;;;;10.21;66.94;101476.94;10334641;28;20049;-67
2021/11/18 15:06:51;;;;;;;13.15;5.57;;;;;;;10.30;66.94;101480.84;10340617;28;20077;-66
2021/11/18 15:12:00;;;;;;;10.35;5.03;;;;;;;10.29;67.05;101479.13;10341910;28;20050;-66
2021/11/18 15:17:04;;;;;;;9.05;4.88;;;;;;;10.20;67.39;101480.53;10357453;28;20049;-68
2021/11/18 15:22:08;;;;;;;6.82;5.00;;;;;;;10.16;67.82;101484.31;10356691;28;20497;-66
2021/11/18 15:27:11;;;;;;;8.43;4.30;;;;;;;10.12;68.13;101485.47;10357714;28;20526;-66
2021/11/18 15:32:17;;;;;;;9.13;4.65;;;;;;;10.10;68.26;101495.31;10357073;28;20050;-66
2021/11/18 15:37:21;;;;;;;12.40;6.47;;;;;;;10.12;68.24;101498.75;10356578;28;20054;-66
2021/11/18 15:42:25;;;;;;;9.60;5.00;;;;;;;10.07;68.25;101498.16;10360318;28;20060;-66
2021/11/18 15:47:27;;;;;;;15.32;5.80;;;;;;;10.09;68.28;101482.97;10360484;28;20554;-67
2021/11/18 15:52:28;;;;;;;12.00;4.90;;;;;;;10.17;68.21;101482.53;10301324;28;20397;-67
2021/11/18 15:57:31;;;;;;;9.95;4.78;;;;;;;10.20;68.11;101483.19;10289722;28;20061;-66
2021/11/18 16:02:33;;;;;;;9.70;4.13;;;;;;;10.16;68.08;101473.66;10290698;28;20049;-66
2021/11/18 16:07:38;;;;;;;11.77;4.35;;;;;;;10.05;68.61;101492.94;10289932;28;20200;-67
2021/11/18 16:12:41;;;;;;;9.50;4.47;;;;;;;10.00;68.99;101499.50;10289492;28;20540;-69
2021/11/18 16:17:43;;;;;;;8.82;4.38;;;;;;;9.96;68.84;101488.16;10307300;28;20100;-66
2021/11/18 16:22:45;;;;;;;15.20;4.57;;;;;;;9.91;69.15;101491.09;10302012;28;20045;-66
2021/11/18 16:27:49;;;;;;;13.30;4.63;;;;;;;9.95;69.58;101490.91;10305760;28;20054;-65
2021/11/18 16:32:53;;;;;;;8.77;4.33;;;;;;;9.85;69.51;101496.75;10301043;28;20042;-65
2021/11/18 16:37:55;;;;;;;10.45;4.88;;;;;;;9.84;69.68;101495.03;10294812;28;20046;-64
2021/11/18 16:42:57;;;;;;;10.73;4.03;;;;;;;9.68;69.45;101488.88;10302802;28;20045;-65
2021/11/18 16:48:00;;;;;;;11.57;4.22;;;;;;;9.64;70.16;101498.00;10302285;28;20573;-66
2021/11/18 16:53:03;;;;;;;7.75;4.10;;;;;;;9.50;70.33;101512.91;10300887;28;20050;-66
2021/11/18 16:58:04;;;;;;;12.93;5.78;;;;;;;9.42;71.13;101514.28;10310699;28;20127;-65
2021/11/18 17:03:10;;;;;;;7.20;4.70;;;;;;;9.40;71.64;101510.84;10302215;28;20061;-64
2021/11/18 17:08:12;;;;;;;11.15;5.32;;;;;;;9.41;71.43;101502.78;10294740;28;20667;-66
2021/11/18 17:13:15;;;;;;;8.63;4.53;;;;;;;9.33;71.59;101513.00;10304513;28;20516;-65
2021/11/18 17:18:20;;;;;;;9.95;5.30;;;;;;;9.35;72.11;101529.69;10298270;28;20042;-65
2021/11/18 17:23:23;;;;;;;12.27;5.53;;;;;;;9.36;71.59;101540.25;10302685;28;20062;-65
2021/11/18 17:28:25;;;;;;;21.23;19.17;;;;;;;9.38;72.10;101545.47;10355716;28;20057;-65
2021/11/18 17:33:28;;;;;;;14.00;12.10;;;;;;;9.42;71.75;101557.66;10316079;28;20069;-63
2021/11/18 17:38:32;;;;;;;12.40;6.28;;;;;;;9.51;71.93;101556.28;10308836;28;20050;-67
2021/11/18 17:43:38;;;;;;;17.05;9.63;;;;;;;9.59;71.47;101567.34;10336034;28;20173;-66
2021/11/18 17:48:43;;;;;;;14.32;7.80;;;;;;;9.69;71.61;101560.56;10345040;28;20052;-65
2021/11/18 17:53:45;;;;;;;;;;;;;;;9.70;71.23;101556.13;10337845;28;20054;-66
2021/11/18 17:58:48;;;;;;;10.30;5.72;;;;;;;9.62;71.94;101574.31;10346114;28;20016;-66
2021/11/18 18:03:49;;;;;;;10.57;5.25;;;;;;;9.64;71.83;101567.97;10342644;28;20058;-65
2021/11/18 18:08:51;;;;;;;10.60;6.57;;;;;;;9.73;72.17;101579.91;10341114;28;20058;-66
2021/11/18 18:13:53;;;;;;;15.65;7.75;;;;;;;9.68;71.81;101571.31;10342108;28;20132;-64
2021/11/18 18:18:55;;;;;;;13.88;7.57;;;;;;;9.55;71.85;101558.69;10340642;28;20455;-65
2021/11/18 18:23:57;;;;;;;10.75;6.32;;;;;;;9.46;71.27;101564.53;10337190;28;20053;-65
2021/11/18 18:29:00;;;;;;;9.25;6.43;;;;;;;9.41;70.72;101571.03;10340531;28;20500;-65
2021/11/18 18:34:02;;;;;;;13.05;6.55;;;;;;;9.23;70.87;101562.25;10342545;28;20489;-66
2021/11/18 18:39:07;;;;;;;10.00;6.45;;;;;;;8.91;71.00;101578.97;10342179;28;20045;-66
2021/11/18 18:44:09;;;;;;;10.95;5.82;;;;;;;8.79;71.13;101563.69;10344936;28;20053;-65
2021/11/18 18:49:13;;;;;;;9.73;6.85;;;;;;;8.88;70.88;101572.97;10338077;28;20489;-66
2021/11/18 18:54:16;;;;;;;12.82;6.40;;;;;;;8.91;71.40;101568.34;10328934;28;20053;-65
2021/11/18 18:59:20;;;;;;;10.25;6.40;;;;;;;8.81;71.31;101562.66;10335513;28;20499;-65
2021/11/18 19:04:23;;;;;;;10.10;4.97;;;;;;;8.69;71.06;101554.47;10342191;28;20046;-65
2021/11/18 19:09:24;;;;;;;9.98;5.47;;;;;;;8.63;71.87;101553.88;10339401;28;20089;-67
2021/11/18 19:14:28;;;;;;;10.00;5.78;;;;;;;8.71;71.26;101552.59;10345527;28;20085;-65
2021/11/18 19:19:36;;;;;;;10.15;4.60;;;;;;;8.61;71.14;101561.03;10340715;28;20161;-66
2021/11/18 19:24:38;;;;;;;7.78;5.05;;;;;;;8.64;71.68;101558.22;10334074;28;20058;-66
2021/11/18 19:34:57;;;;;;;8.18;6.03;;;;;;;8.62;71.55;101575.19;10368220;28;20044;-66
2021/11/18 19:40:00;;;;;;;13.93;6.82;;;;;;;8.67;71.60;101579.28;10367796;28;20050;-65
2021/11/18 19:45:07;;;;;;;11.85;7.10;;;;;;;8.66;71.53;101574.06;10370473;28;20049;-65
2021/11/18 19:50:11;;;;;;;12.20;6.90;;;;;;;8.67;71.32;101573.97;10371841;28;20048;-65
2021/11/18 19:55:16;;;;;;;9.45;6.43;;;;;;;8.71;72.40;101582.66;10371320;28;20111;-66
2021/11/18 20:00:24;;;;;;;7.82;6.13;;;;;;;8.84;71.59;101589.06;10303118;28;20056;-66
2021/11/18 20:05:27;;;;;;;14.07;7.93;;;;;;;8.85;71.12;101585.44;10308195;28;20100;-65
2021/11/18 20:10:29;;;;;;;10.98;6.43;;;;;;;8.78;71.42;101584.06;10307551;28;20483;-67
2021/11/18 20:15:33;;;;;;;17.95;7.68;;;;;;;8.79;71.55;101584.91;10306577;28;20141;-65
2021/11/18 20:20:35;;;;;;;16.13;8.30;;;;;;;8.70;71.71;101580.94;10307527;28;20156;-65
2021/11/18 20:25:37;;;;;;;11.63;6.85;;;;;;;8.67;72.52;101581.94;10306949;28;20100;-67
2021/11/18 20:30:43;;;;;;;13.38;7.13;;;;;;;8.75;72.20;101581.56;10305551;28;20420;-66
2021/11/18 20:35:50;;;;;;;12.82;6.70;;;;;;;8.68;72.23;101588.13;10296350;28;20229;-66
2021/11/18 20:40:58;;;;;;;14.73;7.63;;;;;;;8.63;72.11;101587.50;10301010;28;20054;-66
2021/11/18 20:46:02;;;;;;;11.25;7.20;;;;;;;8.65;72.25;101591.78;10323744;28;20057;-65
2021/11/18 20:51:10;;;;;;;10.00;6.53;;;;;;;8.58;71.92;101578.91;10323382;28;20053;-65
2021/11/18 20:56:13;;;;;;;10.82;6.22;;;;;;;8.54;71.91;101580.00;10323486;28;20064;-66
2021/11/18 21:01:20;;;;;;;12.68;8.25;;;;;;;8.69;72.46;101597.78;10325660;28;20046;-66
2021/11/18 21:06:22;;;;;;;12.00;7.20;;;;;;;8.69;71.75;101587.19;10363267;28;20499;-66
2021/11/18 21:11:26;;;;;;;10.30;7.38;;;;;;;8.61;71.75;101573.44;10365984;28;20517;-66
2021/11/18 21:16:31;;;;;;;9.70;6.90;;;;;;;8.54;72.31;101580.00;10372179;28;20045;-67
2021/11/18 21:21:34;;;;;;;;;;;;;;;8.44;72.62;101583.13;10377082;28;20131;-66
2021/11/18 21:26:38;;;;;;;11.90;6.03;;;;;;;8.41;72.50;101579.75;10368831;28;19980;-66
2021/11/18 21:31:39;;;;;;;11.25;6.60;;;;;;;8.34;73.22;101584.50;10376164;28;20140;-67
2021/11/18 21:36:44;;;;;;;11.35;6.10;;;;;;;8.37;73.30;101573.72;10376381;28;20118;-66
2021/11/18 21:41:48;;;;;;;9.10;5.60;;;;;;;8.53;72.92;101568.53;10370549;28;20600;-65
2021/11/18 21:46:54;;;;;;;12.83;5.23;;;;;;;8.41;73.22;101574.44;10368128;28;20144;-66
2021/11/18 21:51:58;;;;;;;15.82;6.38;;;;;;;8.44;73.02;101582.28;10362945;28;20056;-65
2021/11/18 21:57:07;;;;;;;9.98;6.25;;;;;;;8.45;73.01;101579.56;10362167;28;20058;-65
2021/11/18 22:02:13;;;;;;;13.45;6.57;;;;;;;8.37;73.25;101583.50;10369477;28;20049;-66
2021/11/18 22:07:17;;;;;;;14.50;6.40;;;;;;;8.33;73.85;101588.06;10372875;28;20049;-66
2021/11/18 22:12:20;;;;;;;11.77;7.82;;;;;;;8.31;73.78;101589.94;10366498;28;20128;-66
2021/11/18 22:17:23;;;;;;;13.98;7.93;;;;;;;8.21;74.46;101573.66;10364089;28;20053;-65
2021/11/18 22:22:27;;;;;;;11.43;7.10;;;;;;;8.19;74.27;101564.03;10361238;28;20050;-65
2021/11/18 22:27:33;;;;;;;11.43;6.55;;;;;;;8.23;74.33;101562.97;10328499;28;20125;-65
2021/11/18 22:32:35;;;;;;;13.27;7.28;;;;;;;8.23;74.50;101576.22;10301187;28;20444;-66
2021/11/18 22:37:36;;;;;;;11.98;7.10;;;;;;;8.12;74.88;101564.34;10293969;28;20153;-65
2021/11/18 22:42:38;;;;;;;11.63;7.13;;;;;;;8.22;74.67;101567.38;10288958;28;20077;-66
2021/11/18 22:47:39;;;;;;;14.43;6.95;;;;;;;8.34;74.18;101587.16;10288932;28;20138;-66
2021/11/18 22:52:41;;;;;;;11.30;7.13;;;;;;;8.37;74.01;101579.03;10293212;28;20054;-67
2021/11/18 22:57:45;;;;;;;11.65;6.68;;;;;;;8.39;74.52;101573.63;10285362;28;20137;-65
2021/11/18 23:02:46;;;;;;;10.20;6.32;;;;;;;8.48;73.88;101582.03;10292498;28;20684;-67
2021/11/18 23:07:47;;;;;;;14.30;7.95;;;;;;;8.44;73.66;101580.47;10289666;28;20084;-66
2021/11/18 23:12:49;;;;;;;11.85;7.30;;;;;;;8.42;74.29;101577.03;10291690;28;20046;-67
2021/11/18 23:17:51;;;;;;;10.93;6.43;;;;;;;8.37;74.00;101571.06;10293949;28;20042;-67
2021/11/18 23:22:54;;;;;;;13.85;7.30;;;;;;;8.46;73.99;101575.94;10284622;28;20134;-66